createdAt,value
2018-06-12T00:02:12.794Z,67.80
2018-06-12T00:04:46.162Z,68.00
2018-06-12T00:07:19.367Z,67.90
2018-06-12T00:09:53.821Z,67.90
2018-06-12T00:12:27.841Z,68.00
2018-06-12T00:15:01.116Z,67.70
2018-06-12T00:17:34.501Z,67.80
2018-06-12T00:20:07.887Z,67.90
2018-06-12T00:22:41.220Z,67.70
2018-06-12T00:25:14.473Z,67.90
2018-06-12T00:27:47.739Z,67.70
2018-06-12T00:30:20.986Z,67.60
2018-06-12T00:32:54.278Z,67.80
2018-06-12T00:35:27.597Z,67.60
2018-06-12T00:38:00.918Z,67.60
2018-06-12T00:40:34.048Z,67.80
2018-06-12T00:43:07.275Z,67.90
2018-06-12T00:45:40.590Z,68.00
2018-06-12T00:48:13.902Z,67.60
2018-06-12T00:50:47.150Z,67.40
2018-06-12T00:53:20.589Z,67.40
2018-06-12T00:55:53.853Z,67.40
2018-06-12T00:58:27.085Z,67.30
2018-06-12T01:01:00.386Z,67.40
2018-06-12T01:03:33.498Z,67.50
2018-06-12T01:06:06.846Z,67.30
2018-06-12T01:11:11.799Z,67.20
2018-06-12T01:13:45.071Z,67.00
2018-06-12T01:16:19.771Z,66.90
2018-06-12T01:18:52.941Z,67.00
2018-06-12T01:21:26.014Z,66.80
2018-06-12T01:23:59.303Z,66.80
2018-06-12T01:26:32.482Z,66.50
2018-06-12T01:29:05.612Z,66.30
2018-06-12T01:31:38.731Z,65.80
2018-06-12T01:34:12.116Z,65.50
2018-06-12T01:36:45.469Z,65.20
2018-06-12T01:39:18.668Z,65.00
2018-06-12T01:41:52.042Z,65.10
2018-06-12T01:44:25.537Z,64.70
2018-06-12T01:46:58.671Z,64.10
2018-06-12T01:49:31.867Z,64.00
2018-06-12T01:52:05.041Z,64.10
2018-06-12T01:54:38.204Z,64.10
2018-06-12T01:57:11.321Z,64.00
2018-06-12T01:59:44.449Z,63.50
2018-06-12T02:02:17.592Z,62.30
2018-06-12T02:04:50.746Z,61.90
2018-06-12T02:07:23.926Z,61.80
2018-06-12T02:09:57.146Z,61.00
2018-06-12T02:12:30.301Z,60.00
2018-06-12T02:15:03.459Z,60.30
2018-06-12T02:17:36.555Z,58.70
2018-06-12T02:20:09.770Z,59.40
2018-06-12T02:22:42.836Z,59.50
2018-06-12T02:25:16.117Z,59.20
2018-06-12T02:27:49.454Z,59.30
2018-06-12T02:30:22.725Z,59.20
2018-06-12T02:32:55.814Z,59.20
2018-06-12T02:35:29.017Z,59.30
2018-06-12T02:38:02.336Z,59.10
2018-06-12T02:40:37.407Z,58.40
2018-06-12T02:43:10.721Z,58.10
2018-06-12T02:45:43.842Z,57.40
2018-06-12T02:48:17.294Z,57.20
2018-06-12T02:50:51.649Z,56.80
2018-06-12T02:53:26.585Z,56.40
2018-06-12T02:58:49.280Z,56.80
2018-06-12T03:01:22.490Z,56.60
2018-06-12T03:03:55.757Z,56.70
2018-06-12T03:06:28.821Z,56.80
2018-06-12T03:09:02.069Z,56.40
2018-06-12T03:11:35.221Z,56.90
2018-06-12T03:14:08.367Z,56.20
2018-06-12T03:16:41.641Z,55.50
2018-06-12T03:19:14.820Z,55.40
2018-06-12T03:21:49.118Z,55.00
2018-06-12T03:24:22.197Z,55.00
2018-06-12T03:26:55.322Z,54.70
2018-06-12T03:29:28.565Z,55.20
2018-06-12T03:32:02.260Z,55.50
2018-06-12T03:34:44.186Z,56.00
2018-06-12T03:37:32.756Z,56.50
2018-06-12T03:40:06.111Z,57.10
2018-06-12T03:47:47.964Z,57.20
2018-06-12T03:50:38.929Z,56.90
2018-06-12T03:53:12.045Z,56.40
2018-06-12T03:55:45.183Z,56.30
2018-06-12T03:58:18.310Z,56.20
2018-06-12T04:00:51.436Z,56.20
2018-06-12T04:03:24.729Z,55.80
2018-06-12T04:05:57.756Z,55.70
2018-06-12T04:08:30.860Z,56.10
2018-06-12T04:11:03.916Z,56.10
2018-06-12T04:13:37.076Z,56.30
2018-06-12T04:16:10.203Z,56.30
2018-06-12T04:18:43.299Z,56.10
2018-06-12T04:21:16.356Z,56.30
2018-06-12T04:23:49.467Z,56.70
2018-06-12T04:26:22.491Z,57.10
2018-06-12T04:28:55.592Z,57.30
2018-06-12T04:31:28.782Z,57.10
2018-06-12T04:34:02.854Z,56.80
2018-06-12T04:36:36.226Z,56.40
2018-06-12T04:39:10.844Z,56.70
2018-06-12T04:41:47.388Z,57.10
2018-06-12T04:44:20.470Z,56.20
2018-06-12T04:46:53.625Z,56.40
2018-06-12T04:49:26.807Z,56.60
2018-06-12T04:51:59.945Z,56.50
2018-06-12T04:54:33.079Z,56.00
2018-06-12T04:57:06.206Z,55.40
2018-06-12T04:59:39.248Z,54.80
2018-06-12T05:02:12.298Z,54.10
2018-06-12T05:04:45.477Z,54.10
2018-06-12T05:07:18.500Z,53.40
2018-06-12T05:09:51.597Z,52.50
2018-06-12T05:12:24.752Z,52.30
2018-06-12T05:14:57.853Z,52.00
2018-06-12T05:17:30.909Z,51.20
2018-06-12T05:20:03.977Z,51.40
2018-06-12T05:22:37.095Z,50.90
2018-06-12T05:25:10.362Z,50.70
2018-06-12T05:27:43.528Z,50.70
2018-06-12T05:30:16.606Z,51.00
2018-06-12T05:32:49.776Z,51.60
2018-06-12T05:35:22.922Z,52.40
2018-06-12T05:37:56.121Z,52.50
2018-06-12T05:40:29.299Z,52.50
2018-06-12T05:43:02.368Z,53.00
2018-06-12T05:45:35.565Z,53.20
2018-06-12T05:48:08.748Z,52.60
2018-06-12T05:50:41.865Z,52.60
2018-06-12T05:53:15.018Z,52.20
2018-06-12T05:55:48.100Z,52.00
2018-06-12T05:58:21.238Z,51.90
2018-06-12T06:00:54.337Z,51.40
2018-06-12T06:03:27.516Z,51.30
2018-06-12T06:06:00.581Z,50.90
2018-06-12T06:08:33.705Z,50.10
2018-06-12T06:11:06.829Z,50.30
2018-06-12T06:13:39.916Z,50.00
2018-06-12T06:16:12.961Z,49.10
2018-06-12T06:18:46.017Z,49.00
2018-06-12T06:21:19.122Z,48.60
2018-06-12T06:23:52.227Z,48.40
2018-06-12T06:26:25.334Z,47.80
2018-06-12T06:28:58.421Z,48.00
2018-06-12T06:31:31.570Z,48.60
2018-06-12T06:34:04.592Z,49.40
2018-06-12T06:36:37.591Z,47.60
2018-06-12T06:39:11.843Z,48.40
2018-06-12T06:41:44.896Z,48.90
2018-06-12T06:44:17.981Z,48.00
2018-06-12T06:46:51.067Z,47.90
2018-06-12T06:49:24.264Z,48.20
2018-06-12T06:51:57.328Z,48.80
2018-06-12T06:54:30.418Z,49.40
2018-06-12T06:57:03.562Z,49.40
2018-06-12T06:59:36.687Z,49.10
2018-06-12T07:02:09.828Z,49.20
2018-06-12T07:04:42.893Z,49.60
2018-06-12T07:07:16.039Z,50.10
2018-06-12T07:09:49.222Z,49.80
2018-06-12T07:12:22.375Z,50.70
2018-06-12T07:14:55.394Z,51.00
2018-06-12T07:17:28.527Z,51.10
2018-06-12T07:20:01.615Z,50.50
2018-06-12T07:22:34.716Z,50.30
2018-06-12T07:25:07.941Z,50.80
2018-06-12T07:27:41.151Z,50.60
2018-06-12T07:30:14.230Z,49.40
2018-06-12T07:32:47.304Z,48.30
2018-06-12T07:38:01.212Z,48.10
2018-06-12T07:40:34.332Z,48.00
2018-06-12T07:43:07.472Z,48.00
2018-06-12T07:45:40.486Z,48.10
2018-06-12T07:48:13.644Z,48.40
2018-06-12T07:50:46.918Z,47.90
2018-06-12T07:53:19.965Z,48.00
2018-06-12T07:55:53.096Z,48.10
2018-06-12T07:58:26.192Z,46.30
2018-06-12T08:00:59.312Z,45.40
2018-06-12T08:03:32.528Z,44.80
2018-06-12T08:06:06.035Z,42.40
2018-06-12T08:08:39.114Z,41.50
2018-06-12T08:11:12.281Z,41.00
2018-06-12T08:13:45.389Z,42.40
2018-06-12T08:16:18.462Z,43.30
2018-06-12T08:18:51.490Z,43.80
2018-06-12T08:21:24.589Z,44.30
2018-06-12T08:23:57.704Z,45.20
2018-06-12T08:26:30.844Z,45.20
2018-06-12T08:29:04.009Z,44.60
2018-06-12T08:31:37.067Z,43.90
2018-06-12T08:34:10.277Z,44.10
2018-06-12T08:39:14.966Z,44.00
2018-06-12T08:41:48.136Z,44.10
2018-06-12T08:44:21.215Z,44.60
2018-06-12T08:46:54.352Z,44.90
2018-06-12T08:49:27.400Z,45.90
2018-06-12T08:52:00.546Z,46.90
2018-06-12T08:54:33.621Z,48.40
2018-06-12T08:57:06.728Z,48.20
2018-06-12T08:59:39.876Z,48.80
2018-06-12T09:02:16.590Z,49.40
2018-06-12T09:04:49.857Z,50.20
2018-06-12T09:07:22.934Z,50.70
2018-06-12T09:09:56.108Z,51.10
2018-06-12T09:12:29.316Z,51.20
2018-06-12T09:15:02.572Z,51.70
2018-06-12T09:17:35.591Z,52.20
2018-06-12T09:20:08.779Z,53.10
2018-06-12T09:22:41.779Z,53.40
2018-06-12T09:25:14.910Z,53.60
2018-06-12T09:27:51.737Z,53.50
2018-06-12T09:30:24.782Z,53.60
2018-06-12T09:32:57.956Z,53.50
2018-06-12T09:35:31.404Z,53.50
2018-06-12T09:38:04.582Z,53.80
2018-06-12T09:40:37.766Z,53.60
2018-06-12T09:43:11.080Z,53.80
2018-06-12T09:45:44.185Z,53.70
2018-06-12T09:48:17.281Z,53.70
2018-06-12T09:50:50.393Z,53.80
2018-06-12T09:53:23.461Z,54.00
2018-06-12T09:55:56.526Z,54.00
2018-06-12T09:58:29.589Z,53.90
2018-06-12T10:01:06.745Z,54.30
2018-06-12T10:03:39.822Z,54.70
2018-06-12T10:06:13.023Z,54.90
2018-06-12T10:08:46.147Z,55.10
2018-06-12T10:11:19.243Z,55.10
2018-06-12T10:13:52.296Z,55.00
2018-06-12T10:16:25.357Z,55.10
2018-06-12T10:18:58.523Z,55.20
2018-06-12T10:21:31.514Z,55.50
2018-06-12T10:24:04.713Z,55.80
2018-06-12T10:26:37.796Z,55.90
2018-06-12T10:29:10.856Z,55.20
2018-06-12T10:31:44.004Z,55.10
2018-06-12T10:34:17.072Z,55.60
2018-06-12T10:36:50.388Z,56.00
2018-06-12T10:39:23.628Z,56.60
2018-06-12T10:41:56.709Z,56.90
2018-06-12T10:44:29.805Z,57.10
2018-06-12T10:47:02.849Z,57.20
2018-06-12T10:49:36.000Z,57.20
2018-06-12T10:52:09.024Z,57.50
2018-06-12T10:54:42.293Z,58.50
2018-06-12T10:57:15.385Z,58.20
2018-06-12T10:59:48.616Z,58.60
2018-06-12T11:02:21.772Z,58.90
2018-06-12T11:04:54.895Z,58.70
2018-06-12T11:07:27.961Z,58.90
2018-06-12T11:10:01.044Z,59.30
2018-06-12T11:12:34.431Z,59.20
2018-06-12T11:15:07.607Z,59.70
2018-06-12T11:17:41.674Z,59.20
2018-06-12T11:22:46.360Z,59.50
2018-06-12T11:25:19.527Z,59.60
2018-06-12T11:27:52.551Z,59.80
2018-06-12T11:30:25.612Z,59.90
2018-06-12T11:32:58.727Z,59.90
2018-06-12T11:35:31.870Z,60.00
2018-06-12T11:40:36.704Z,59.60
2018-06-12T11:43:09.826Z,59.60
2018-06-12T11:45:43.036Z,59.70
2018-06-12T11:48:16.108Z,59.80
2018-06-12T11:50:49.373Z,59.90
2018-06-12T11:53:22.514Z,60.10
2018-06-12T11:55:55.577Z,60.20
2018-06-12T11:58:28.709Z,60.20
2018-06-12T12:01:01.733Z,60.10
2018-06-12T12:06:06.747Z,60.10
2018-06-12T12:08:40.196Z,60.10
2018-06-12T12:11:13.265Z,60.20
2018-06-12T12:13:46.686Z,60.30
2018-06-12T12:16:20.058Z,60.40
2018-06-12T12:18:53.211Z,60.30
2018-06-12T12:21:26.357Z,60.30
2018-06-12T12:23:59.519Z,60.60
2018-06-12T12:26:32.513Z,60.70
2018-06-12T12:29:05.601Z,61.00
2018-06-12T12:31:38.653Z,61.00
2018-06-12T12:34:11.855Z,60.70
2018-06-12T12:36:44.992Z,61.00
2018-06-12T12:39:18.084Z,61.10
2018-06-12T12:41:51.165Z,60.80
2018-06-12T12:44:24.315Z,61.00
2018-06-12T12:46:57.619Z,61.10
2018-06-12T12:49:30.698Z,61.40
2018-06-12T12:52:03.678Z,61.60
2018-06-12T12:54:36.768Z,61.90
2018-06-12T12:57:09.987Z,61.90
2018-06-12T12:59:43.298Z,61.70
2018-06-12T13:02:16.381Z,61.50
2018-06-12T13:04:49.507Z,61.30
2018-06-12T13:07:22.622Z,62.40
2018-06-12T13:09:55.680Z,61.80
2018-06-12T13:12:28.894Z,62.10
2018-06-12T13:15:02.004Z,62.50
2018-06-12T13:17:35.252Z,62.70
2018-06-12T13:20:08.374Z,62.70
2018-06-12T13:22:41.484Z,63.20
2018-06-12T13:25:14.616Z,63.30
2018-06-12T13:27:47.724Z,63.10
2018-06-12T13:30:20.821Z,63.10
2018-06-12T13:32:53.915Z,63.20
2018-06-12T13:35:26.930Z,63.30
2018-06-12T13:38:00.034Z,63.70
2018-06-12T13:40:33.114Z,63.70
2018-06-12T13:43:06.223Z,63.90
2018-06-12T13:45:39.365Z,64.00
2018-06-12T13:48:12.434Z,64.30
2018-06-12T13:50:45.400Z,64.50
2018-06-12T13:53:18.460Z,64.70
2018-06-12T13:55:51.541Z,64.70
2018-06-12T13:58:24.505Z,64.70
2018-06-12T14:00:57.611Z,64.50
2018-06-12T14:03:30.737Z,64.50
2018-06-12T14:06:03.797Z,64.30
2018-06-12T14:08:36.889Z,64.50
2018-06-12T14:11:10.033Z,64.80
2018-06-12T14:13:43.396Z,64.90
2018-06-12T14:16:16.561Z,64.90
2018-06-12T14:18:49.772Z,65.00
2018-06-12T14:21:22.894Z,66.00
2018-06-12T14:23:56.055Z,66.70
2018-06-12T14:29:00.705Z,67.60
2018-06-12T14:31:33.769Z,67.80
2018-06-12T14:34:06.901Z,68.00
2018-06-12T14:36:39.968Z,68.40
2018-06-12T14:39:13.592Z,69.10
2018-06-12T14:41:46.665Z,69.30
2018-06-12T14:44:19.759Z,69.40
2018-06-12T14:46:52.908Z,69.60
2018-06-12T14:49:25.944Z,69.20
2018-06-12T14:51:59.027Z,69.20
2018-06-12T14:54:32.102Z,68.70
2018-06-12T14:57:05.325Z,69.00
2018-06-12T14:59:39.318Z,68.90
2018-06-12T15:02:12.358Z,69.30
2018-06-12T15:04:46.492Z,69.60
2018-06-12T15:07:19.589Z,70.10
2018-06-12T15:12:24.443Z,70.60
2018-06-12T15:14:57.612Z,70.90
2018-06-12T15:17:30.637Z,71.10
2018-06-12T15:20:03.965Z,71.00
2018-06-12T15:22:37.021Z,71.20
2018-06-12T15:25:10.151Z,71.40
2018-06-12T15:27:43.312Z,71.60
2018-06-12T15:30:16.501Z,71.80
2018-06-12T15:32:49.674Z,71.70
2018-06-12T15:35:22.692Z,70.80
2018-06-12T15:37:55.717Z,70.70
2018-06-12T15:40:29.049Z,71.10
2018-06-12T15:43:02.143Z,71.40
2018-06-12T15:45:35.344Z,70.30
2018-06-12T15:48:08.392Z,70.60
2018-06-12T15:50:41.514Z,70.20
2018-06-12T15:53:14.589Z,70.40
2018-06-12T15:55:47.655Z,69.90
2018-06-12T15:58:20.749Z,69.90
2018-06-12T16:00:53.785Z,70.00
2018-06-12T16:03:26.840Z,69.80
2018-06-12T16:06:01.044Z,69.30
2018-06-12T16:08:34.196Z,69.10
2018-06-12T16:11:07.297Z,69.80
2018-06-12T16:13:40.437Z,70.80
2018-06-12T16:16:13.576Z,70.80
2018-06-12T16:18:46.691Z,70.90
2018-06-12T16:21:19.825Z,70.50
2018-06-12T16:23:52.847Z,70.20
2018-06-12T16:26:26.001Z,70.00
2018-06-12T16:28:59.074Z,70.20
2018-06-12T16:31:32.122Z,69.50
2018-06-12T16:34:05.228Z,70.30
2018-06-12T16:39:11.383Z,71.00
2018-06-12T16:44:16.073Z,71.50
2018-06-12T16:46:49.180Z,71.00
2018-06-12T16:49:22.208Z,70.90
2018-06-12T16:51:55.245Z,71.70
2018-06-12T16:54:28.350Z,72.10
2018-06-12T16:57:01.441Z,72.20
2018-06-12T16:59:34.653Z,72.30
2018-06-12T17:02:07.937Z,72.30
2018-06-12T17:04:41.037Z,72.80
2018-06-12T17:07:14.080Z,72.50
2018-06-12T17:09:47.187Z,72.90
2018-06-12T17:12:20.257Z,73.00
2018-06-12T17:14:53.360Z,73.30
2018-06-12T17:17:26.492Z,73.60
2018-06-12T17:19:59.643Z,74.00
2018-06-12T17:22:32.775Z,73.90
2018-06-12T17:25:06.071Z,74.00
2018-06-12T17:27:39.110Z,74.00
2018-06-12T17:30:12.212Z,73.70
2018-06-12T17:32:45.502Z,73.50
2018-06-12T17:35:19.753Z,72.80
2018-06-12T17:37:52.892Z,71.40
2018-06-12T17:40:26.050Z,71.30
2018-06-12T17:42:59.102Z,71.80
2018-06-12T17:45:32.482Z,72.00
2018-06-12T17:48:05.557Z,72.00
2018-06-12T17:50:38.536Z,72.00
2018-06-12T17:53:11.636Z,72.30
2018-06-12T17:55:44.704Z,72.50
2018-06-12T17:58:18.072Z,72.60
2018-06-12T18:00:51.125Z,72.50
2018-06-12T18:03:24.189Z,72.90
2018-06-12T18:05:57.249Z,72.80
2018-06-12T18:08:30.371Z,72.90
2018-06-12T18:11:03.642Z,72.70
2018-06-12T18:13:38.514Z,72.90
2018-06-12T18:16:11.585Z,73.00
2018-06-12T18:18:44.665Z,73.20
2018-06-12T18:21:18.630Z,73.00
2018-06-12T18:23:51.680Z,73.00
2018-06-12T18:26:24.877Z,73.10
2018-06-12T18:28:57.936Z,73.00
2018-06-12T18:31:30.989Z,73.60
2018-06-12T18:34:04.068Z,73.60
2018-06-12T18:36:37.270Z,73.60
2018-06-12T18:39:12.349Z,73.60
2018-06-12T18:41:45.534Z,74.00
2018-06-12T18:44:18.592Z,74.10
2018-06-12T18:46:51.620Z,74.30
2018-06-12T18:49:24.689Z,74.40
2018-06-12T18:54:35.001Z,74.30
2018-06-12T18:57:08.197Z,74.20
2018-06-12T18:59:41.313Z,74.50
2018-06-12T19:02:15.277Z,74.60
2018-06-12T19:04:48.329Z,74.90
2018-06-12T19:07:21.556Z,75.10
2018-06-12T19:09:54.757Z,75.30
2018-06-12T19:12:28.151Z,75.50
2018-06-12T19:15:01.277Z,75.80
2018-06-12T19:17:34.387Z,76.00
2018-06-12T19:20:07.590Z,76.30
2018-06-12T19:22:40.628Z,76.70
2018-06-12T19:25:13.736Z,76.90
2018-06-12T19:27:47.070Z,77.10
2018-06-12T19:30:20.187Z,77.30
2018-06-12T19:32:53.368Z,77.70
2018-06-12T19:35:26.882Z,77.70
2018-06-12T19:38:00.218Z,77.70
2018-06-12T19:40:33.500Z,77.60
2018-06-12T19:43:06.517Z,77.60
2018-06-12T19:45:39.663Z,77.40
2018-06-12T19:48:12.769Z,77.30
2018-06-12T20:13:21.117Z,77.50
2018-06-12T20:15:54.253Z,77.90
2018-06-12T20:18:27.263Z,80.40
2018-06-12T20:21:01.229Z,80.90
2018-06-12T20:23:34.409Z,81.10
2018-06-12T20:26:07.652Z,80.80
2018-06-12T20:28:40.788Z,80.80
2018-06-12T20:31:13.866Z,80.50
2018-06-12T20:33:47.087Z,80.40
2018-06-12T20:36:20.224Z,80.30
2018-06-12T20:38:53.547Z,80.40
2018-06-12T20:41:26.685Z,80.50
2018-06-12T20:43:59.725Z,80.60
2018-06-12T20:46:32.922Z,80.60
2018-06-12T20:49:06.047Z,81.00
2018-06-12T20:51:39.214Z,81.80
2018-06-12T20:54:12.421Z,82.80
2018-06-12T20:56:45.511Z,83.00
2018-06-12T20:59:18.512Z,83.20
2018-06-12T21:01:51.528Z,83.00
2018-06-12T21:04:24.881Z,82.90
2018-06-12T21:06:58.104Z,83.10
2018-06-12T21:09:31.201Z,83.20
2018-06-12T21:12:04.372Z,83.30
2018-06-12T21:14:37.385Z,83.10
2018-06-12T21:17:10.661Z,82.80
2018-06-12T21:19:43.782Z,82.60
2018-06-12T21:22:16.920Z,82.60
2018-06-12T21:24:50.080Z,82.50
2018-06-12T21:27:23.210Z,82.50
2018-06-12T21:29:56.247Z,82.60
2018-06-12T21:32:29.289Z,82.30
2018-06-12T21:35:02.399Z,82.20
2018-06-12T21:37:35.597Z,82.30
2018-06-12T21:40:08.730Z,82.40
2018-06-12T21:42:41.933Z,82.60
2018-06-12T21:45:14.922Z,82.30
2018-06-12T21:47:47.923Z,82.20
2018-06-12T21:50:21.187Z,82.10
2018-06-12T21:52:54.276Z,82.90
2018-06-12T21:55:27.340Z,82.10
2018-06-12T21:58:00.381Z,82.10
2018-06-12T22:00:39.161Z,82.10
2018-06-12T22:03:12.293Z,82.10
2018-06-12T22:05:45.365Z,81.90
2018-06-12T22:08:18.413Z,82.00
2018-06-12T22:10:51.633Z,82.10
2018-06-12T22:13:24.781Z,82.20
2018-06-12T22:15:57.906Z,82.30
2018-06-12T22:18:31.201Z,82.30
2018-06-12T22:21:04.225Z,82.40
2018-06-12T22:23:37.419Z,82.40
2018-06-12T22:26:10.501Z,82.60
2018-06-12T22:28:43.486Z,83.00
2018-06-12T22:31:17.057Z,83.20
2018-06-12T22:33:50.205Z,83.30
2018-06-12T22:36:23.265Z,83.30
2018-06-12T22:38:56.397Z,83.30
2018-06-12T22:44:01.407Z,83.20
2018-06-12T22:46:34.584Z,83.20
2018-06-12T22:49:07.739Z,83.00
2018-06-12T22:51:40.860Z,82.90
2018-06-12T22:54:13.953Z,82.60
2018-06-12T22:56:46.970Z,82.50
2018-06-12T22:59:20.065Z,82.30
2018-06-12T23:01:53.137Z,81.90
2018-06-12T23:04:26.335Z,82.00
2018-06-12T23:06:59.366Z,82.10
2018-06-12T23:09:33.533Z,82.50
2018-06-12T23:12:06.815Z,82.70
2018-06-12T23:14:39.913Z,82.80
2018-06-12T23:17:12.952Z,82.80
2018-06-12T23:19:54.872Z,82.70
2018-06-12T23:22:27.958Z,82.60
2018-06-12T23:25:01.031Z,82.30
2018-06-12T23:30:06.870Z,82.30
2018-06-12T23:32:40.036Z,82.20
2018-06-12T23:35:13.108Z,82.30
2018-06-12T23:37:46.169Z,82.20
2018-06-12T23:40:19.181Z,82.20
2018-06-12T23:42:52.354Z,82.90
2018-06-12T23:45:25.476Z,82.20
2018-06-12T23:47:58.459Z,82.20
2018-06-12T23:50:31.524Z,82.30
2018-06-12T23:53:05.527Z,82.40
2018-06-12T23:55:38.681Z,82.30
2018-06-12T23:58:11.671Z,82.40
